sensor_id;sensor_type;location;lat;lon;timestamp;temperature;humidity
31725;DHT22;18306;40.960;14.836;2023-04-09T00:02:20;10.80;99.90
31725;DHT22;18306;40.960;14.836;2023-04-09T00:04:47;10.80;99.90
31725;DHT22;18306;40.960;14.836;2023-04-09T00:07:14;10.90;99.90
31725;DHT22;18306;40.960;14.836;2023-04-09T00:09:41;11.10;99.90
31725;DHT22;18306;40.960;14.836;2023-04-09T00:12:08;11.20;99.90
31725;DHT22;18306;40.960;14.836;2023-04-09T00:14:36;11.30;99.90
31725;DHT22;18306;40.960;14.836;2023-04-09T00:17:03;11.30;99.90
31725;DHT22;18306;40.960;14.836;2023-04-09T00:19:29;11.40;99.90
31725;DHT22;18306;40.960;14.836;2023-04-09T00:21:57;11.30;99.90
31725;DHT22;18306;40.960;14.836;2023-04-09T00:24:23;11.20;99.90
31725;DHT22;18306;40.960;14.836;2023-04-09T00:26:51;11.20;99.90
31725;DHT22;18306;40.960;14.836;2023-04-09T00:29:19;11.20;99.90
31725;DHT22;18306;40.960;14.836;2023-04-09T00:31:46;11.20;99.90
31725;DHT22;18306;40.960;14.836;2023-04-09T00:34:13;11.30;99.90
31725;DHT22;18306;40.960;14.836;2023-04-09T00:36:40;11.20;99.90
31725;DHT22;18306;40.960;14.836;2023-04-09T00:39:07;11.10;99.90
31725;DHT22;18306;40.960;14.836;2023-04-09T00:41:34;10.90;99.90
31725;DHT22;18306;40.960;14.836;2023-04-09T00:44:01;10.80;99.90
31725;DHT22;18306;40.960;14.836;2023-04-09T00:46:30;10.90;99.90
31725;DHT22;18306;40.960;14.836;2023-04-09T00:48:58;10.80;99.90
31725;DHT22;18306;40.960;14.836;2023-04-09T00:51:25;10.90;99.90
31725;DHT22;18306;40.960;14.836;2023-04-09T00:53:52;11.00;99.90
31725;DHT22;18306;40.960;14.836;2023-04-09T00:56:21;11.00;99.90
31725;DHT22;18306;40.960;14.836;2023-04-09T00:58:49;11.10;99.90
31725;DHT22;18306;40.960;14.836;2023-04-09T01:01:16;11.10;99.90
31725;DHT22;18306;40.960;14.836;2023-04-09T01:03:43;11.20;99.90
31725;DHT22;18306;40.960;14.836;2023-04-09T01:06:36;11.20;99.90
31725;DHT22;18306;40.960;14.836;2023-04-09T01:09:23;11.30;99.90
31725;DHT22;18306;40.960;14.836;2023-04-09T01:15:02;11.20;99.90
31725;DHT22;18306;40.960;14.836;2023-04-09T01:17:44;11.20;99.90
31725;DHT22;18306;40.960;14.836;2023-04-09T01:20:34;11.20;99.90
31725;DHT22;18306;40.960;14.836;2023-04-09T01:23:34;11.20;99.90
31725;DHT22;18306;40.960;14.836;2023-04-09T01:28:52;11.00;99.90
31725;DHT22;18306;40.960;14.836;2023-04-09T01:31:27;11.00;99.90
31725;DHT22;18306;40.960;14.836;2023-04-09T01:33:56;11.00;99.90
31725;DHT22;18306;40.960;14.836;2023-04-09T01:36:25;11.10;99.90
31725;DHT22;18306;40.960;14.836;2023-04-09T01:38:55;11.10;99.90
31725;DHT22;18306;40.960;14.836;2023-04-09T01:41:23;11.20;99.90
31725;DHT22;18306;40.960;14.836;2023-04-09T01:43:51;11.10;99.90
31725;DHT22;18306;40.960;14.836;2023-04-09T01:46:20;11.20;99.90
31725;DHT22;18306;40.960;14.836;2023-04-09T01:48:48;11.20;99.90
31725;DHT22;18306;40.960;14.836;2023-04-09T01:51:15;11.30;99.90
31725;DHT22;18306;40.960;14.836;2023-04-09T01:53:43;11.30;99.90
31725;DHT22;18306;40.960;14.836;2023-04-09T01:56:10;11.30;99.90
31725;DHT22;18306;40.960;14.836;2023-04-09T01:58:37;11.30;99.90
31725;DHT22;18306;40.960;14.836;2023-04-09T02:03:55;11.10;99.90
31725;DHT22;18306;40.960;14.836;2023-04-09T02:06:46;10.90;99.90
31725;DHT22;18306;40.960;14.836;2023-04-09T02:09:16;11.00;99.90
31725;DHT22;18306;40.960;14.836;2023-04-09T02:11:47;11.10;99.90
31725;DHT22;18306;40.960;14.836;2023-04-09T02:14:17;11.10;99.90
31725;DHT22;18306;40.960;14.836;2023-04-09T02:16:48;11.20;99.90
31725;DHT22;18306;40.960;14.836;2023-04-09T02:19:15;11.10;99.90
31725;DHT22;18306;40.960;14.836;2023-04-09T02:21:42;11.10;99.90
31725;DHT22;18306;40.960;14.836;2023-04-09T02:24:09;11.20;99.90
31725;DHT22;18306;40.960;14.836;2023-04-09T02:26:37;11.20;99.90
31725;DHT22;18306;40.960;14.836;2023-04-09T02:29:04;11.30;99.90
31725;DHT22;18306;40.960;14.836;2023-04-09T02:31:31;11.20;99.90
31725;DHT22;18306;40.960;14.836;2023-04-09T02:33:58;11.30;99.90
31725;DHT22;18306;40.960;14.836;2023-04-09T02:36:25;11.30;99.90
31725;DHT22;18306;40.960;14.836;2023-04-09T02:38:53;11.30;99.90
31725;DHT22;18306;40.960;14.836;2023-04-09T02:41:20;11.40;99.90
31725;DHT22;18306;40.960;14.836;2023-04-09T02:43:47;11.40;99.90
31725;DHT22;18306;40.960;14.836;2023-04-09T02:46:14;11.40;99.90
31725;DHT22;18306;40.960;14.836;2023-04-09T02:48:41;11.30;99.90
31725;DHT22;18306;40.960;14.836;2023-04-09T02:51:08;11.30;99.90
31725;DHT22;18306;40.960;14.836;2023-04-09T02:53:35;11.20;99.90
31725;DHT22;18306;40.960;14.836;2023-04-09T02:56:03;11.10;99.90
31725;DHT22;18306;40.960;14.836;2023-04-09T02:58:30;11.00;99.90
31725;DHT22;18306;40.960;14.836;2023-04-09T03:00:57;11.10;99.90
31725;DHT22;18306;40.960;14.836;2023-04-09T03:03:24;11.00;99.90
31725;DHT22;18306;40.960;14.836;2023-04-09T03:05:51;11.00;99.90
31725;DHT22;18306;40.960;14.836;2023-04-09T03:08:18;11.00;99.90
31725;DHT22;18306;40.960;14.836;2023-04-09T03:10:45;11.10;99.90
31725;DHT22;18306;40.960;14.836;2023-04-09T03:13:12;11.20;99.90
31725;DHT22;18306;40.960;14.836;2023-04-09T03:15:39;11.30;99.90
31725;DHT22;18306;40.960;14.836;2023-04-09T03:18:07;11.30;99.90
31725;DHT22;18306;40.960;14.836;2023-04-09T03:20:37;11.30;99.90
31725;DHT22;18306;40.960;14.836;2023-04-09T03:23:06;11.30;99.90
31725;DHT22;18306;40.960;14.836;2023-04-09T03:25:38;11.30;99.90
31725;DHT22;18306;40.960;14.836;2023-04-09T03:28:12;11.30;99.90
31725;DHT22;18306;40.960;14.836;2023-04-09T03:30:43;11.20;99.90
31725;DHT22;18306;40.960;14.836;2023-04-09T03:33:11;11.10;99.90
31725;DHT22;18306;40.960;14.836;2023-04-09T03:35:48;11.10;99.90
31725;DHT22;18306;40.960;14.836;2023-04-09T03:38:17;11.10;99.90
31725;DHT22;18306;40.960;14.836;2023-04-09T03:40:45;11.10;99.90
31725;DHT22;18306;40.960;14.836;2023-04-09T03:43:12;11.00;99.90
31725;DHT22;18306;40.960;14.836;2023-04-09T03:45:45;11.00;99.90
31725;DHT22;18306;40.960;14.836;2023-04-09T03:48:19;11.10;99.90
31725;DHT22;18306;40.960;14.836;2023-04-09T03:50:46;11.00;99.90
31725;DHT22;18306;40.960;14.836;2023-04-09T03:53:19;10.90;99.90
31725;DHT22;18306;40.960;14.836;2023-04-09T03:55:46;10.90;99.90
31725;DHT22;18306;40.960;14.836;2023-04-09T03:58:20;10.80;99.90
31725;DHT22;18306;40.960;14.836;2023-04-09T04:00:47;10.90;99.90
31725;DHT22;18306;40.960;14.836;2023-04-09T04:03:35;10.90;99.90
31725;DHT22;18306;40.960;14.836;2023-04-09T04:06:23;11.10;99.90
31725;DHT22;18306;40.960;14.836;2023-04-09T04:09:10;11.10;99.90
31725;DHT22;18306;40.960;14.836;2023-04-09T04:11:46;11.20;99.90
31725;DHT22;18306;40.960;14.836;2023-04-09T04:14:14;11.30;99.90
31725;DHT22;18306;40.960;14.836;2023-04-09T04:16:44;11.40;99.90
31725;DHT22;18306;40.960;14.836;2023-04-09T04:19:16;11.50;99.90
31725;DHT22;18306;40.960;14.836;2023-04-09T04:21:47;11.50;99.90
31725;DHT22;18306;40.960;14.836;2023-04-09T04:24:14;11.40;99.90
31725;DHT22;18306;40.960;14.836;2023-04-09T04:26:41;11.40;99.90
31725;DHT22;18306;40.960;14.836;2023-04-09T04:29:11;11.50;99.90
31725;DHT22;18306;40.960;14.836;2023-04-09T04:31:51;11.50;99.90
31725;DHT22;18306;40.960;14.836;2023-04-09T04:34:21;11.60;99.90
31725;DHT22;18306;40.960;14.836;2023-04-09T04:36:56;11.50;99.90
31725;DHT22;18306;40.960;14.836;2023-04-09T04:39:23;11.50;99.90
31725;DHT22;18306;40.960;14.836;2023-04-09T04:41:57;11.60;99.90
31725;DHT22;18306;40.960;14.836;2023-04-09T04:44:27;11.50;99.90
31725;DHT22;18306;40.960;14.836;2023-04-09T04:47:13;11.40;99.90
31725;DHT22;18306;40.960;14.836;2023-04-09T04:49:41;11.40;99.90
31725;DHT22;18306;40.960;14.836;2023-04-09T04:52:09;11.40;99.90
31725;DHT22;18306;40.960;14.836;2023-04-09T04:54:39;11.40;99.90
31725;DHT22;18306;40.960;14.836;2023-04-09T04:57:06;11.50;99.90
31725;DHT22;18306;40.960;14.836;2023-04-09T04:59:39;11.40;99.90
31725;DHT22;18306;40.960;14.836;2023-04-09T05:02:09;11.50;99.90
31725;DHT22;18306;40.960;14.836;2023-04-09T05:04:56;11.40;99.90
31725;DHT22;18306;40.960;14.836;2023-04-09T05:07:32;11.50;99.90
31725;DHT22;18306;40.960;14.836;2023-04-09T05:10:01;11.60;99.90
31725;DHT22;18306;40.960;14.836;2023-04-09T05:12:53;11.60;99.90
31725;DHT22;18306;40.960;14.836;2023-04-09T05:15:30;11.60;99.90
31725;DHT22;18306;40.960;14.836;2023-04-09T05:18:07;11.50;99.90
31725;DHT22;18306;40.960;14.836;2023-04-09T05:20:36;11.60;99.90
31725;DHT22;18306;40.960;14.836;2023-04-09T05:23:14;11.60;99.90
31725;DHT22;18306;40.960;14.836;2023-04-09T05:25:49;11.30;99.90
31725;DHT22;18306;40.960;14.836;2023-04-09T05:28:39;11.30;99.90
31725;DHT22;18306;40.960;14.836;2023-04-09T05:31:18;11.40;99.90
31725;DHT22;18306;40.960;14.836;2023-04-09T05:33:57;11.20;99.90
31725;DHT22;18306;40.960;14.836;2023-04-09T05:36:37;11.30;99.90
31725;DHT22;18306;40.960;14.836;2023-04-09T05:39:06;11.40;99.90
31725;DHT22;18306;40.960;14.836;2023-04-09T05:41:33;11.50;99.90
31725;DHT22;18306;40.960;14.836;2023-04-09T05:44:30;11.80;99.90
31725;DHT22;18306;40.960;14.836;2023-04-09T05:47:08;11.80;99.90
31725;DHT22;18306;40.960;14.836;2023-04-09T05:49:56;11.80;99.90
31725;DHT22;18306;40.960;14.836;2023-04-09T05:52:23;11.90;99.90
31725;DHT22;18306;40.960;14.836;2023-04-09T05:54:52;12.00;99.90
31725;DHT22;18306;40.960;14.836;2023-04-09T05:57:25;12.00;99.90
31725;DHT22;18306;40.960;14.836;2023-04-09T05:59:57;12.00;99.90
31725;DHT22;18306;40.960;14.836;2023-04-09T06:02:24;12.00;99.90
31725;DHT22;18306;40.960;14.836;2023-04-09T06:04:53;12.10;99.90
31725;DHT22;18306;40.960;14.836;2023-04-09T06:07:21;12.10;99.90
31725;DHT22;18306;40.960;14.836;2023-04-09T06:09:48;12.20;99.90
31725;DHT22;18306;40.960;14.836;2023-04-09T06:12:15;12.30;99.90
31725;DHT22;18306;40.960;14.836;2023-04-09T06:14:42;12.30;99.90
31725;DHT22;18306;40.960;14.836;2023-04-09T06:17:09;12.20;99.90
31725;DHT22;18306;40.960;14.836;2023-04-09T06:19:36;12.20;99.90
31725;DHT22;18306;40.960;14.836;2023-04-09T06:22:03;12.30;99.90
31725;DHT22;18306;40.960;14.836;2023-04-09T06:24:31;12.40;99.90
31725;DHT22;18306;40.960;14.836;2023-04-09T06:26:59;12.40;99.90
31725;DHT22;18306;40.960;14.836;2023-04-09T06:29:26;12.40;99.90
31725;DHT22;18306;40.960;14.836;2023-04-09T06:31:59;12.50;99.90
31725;DHT22;18306;40.960;14.836;2023-04-09T06:34:26;12.40;99.90
31725;DHT22;18306;40.960;14.836;2023-04-09T06:36:54;12.20;99.90
31725;DHT22;18306;40.960;14.836;2023-04-09T06:39:21;12.10;99.90
31725;DHT22;18306;40.960;14.836;2023-04-09T06:41:48;12.00;99.90
31725;DHT22;18306;40.960;14.836;2023-04-09T06:44:34;12.00;99.90
31725;DHT22;18306;40.960;14.836;2023-04-09T06:47:01;11.80;99.90
31725;DHT22;18306;40.960;14.836;2023-04-09T06:49:30;11.50;99.90
31725;DHT22;18306;40.960;14.836;2023-04-09T06:51:59;11.70;99.90
31725;DHT22;18306;40.960;14.836;2023-04-09T06:54:27;12.10;99.90
31725;DHT22;18306;40.960;14.836;2023-04-09T06:56:53;12.20;99.90
31725;DHT22;18306;40.960;14.836;2023-04-09T06:59:20;12.10;99.90
31725;DHT22;18306;40.960;14.836;2023-04-09T07:01:47;12.20;99.90
31725;DHT22;18306;40.960;14.836;2023-04-09T07:04:15;12.20;99.90
31725;DHT22;18306;40.960;14.836;2023-04-09T07:06:42;12.30;99.90
31725;DHT22;18306;40.960;14.836;2023-04-09T07:09:08;12.40;99.90
31725;DHT22;18306;40.960;14.836;2023-04-09T07:11:36;12.40;99.90
31725;DHT22;18306;40.960;14.836;2023-04-09T07:14:03;12.40;99.90
31725;DHT22;18306;40.960;14.836;2023-04-09T07:16:30;12.50;99.90
31725;DHT22;18306;40.960;14.836;2023-04-09T07:18:57;12.60;99.90
31725;DHT22;18306;40.960;14.836;2023-04-09T07:21:24;12.60;99.90
31725;DHT22;18306;40.960;14.836;2023-04-09T07:23:52;12.60;99.90
31725;DHT22;18306;40.960;14.836;2023-04-09T07:26:19;12.60;99.90
31725;DHT22;18306;40.960;14.836;2023-04-09T07:28:48;12.30;99.90
31725;DHT22;18306;40.960;14.836;2023-04-09T07:31:16;11.90;99.90
31725;DHT22;18306;40.960;14.836;2023-04-09T07:33:43;11.40;99.90
31725;DHT22;18306;40.960;14.836;2023-04-09T07:36:10;11.50;99.90
31725;DHT22;18306;40.960;14.836;2023-04-09T07:38:37;11.60;99.90
31725;DHT22;18306;40.960;14.836;2023-04-09T07:41:04;11.50;99.90
31725;DHT22;18306;40.960;14.836;2023-04-09T07:43:33;11.30;99.90
31725;DHT22;18306;40.960;14.836;2023-04-09T07:46:00;11.60;99.90
31725;DHT22;18306;40.960;14.836;2023-04-09T07:48:29;11.60;99.90
31725;DHT22;18306;40.960;14.836;2023-04-09T07:50:57;11.60;99.90
31725;DHT22;18306;40.960;14.836;2023-04-09T07:53:25;11.60;99.90
31725;DHT22;18306;40.960;14.836;2023-04-09T07:56:00;11.60;99.90
31725;DHT22;18306;40.960;14.836;2023-04-09T07:58:28;11.90;99.90
31725;DHT22;18306;40.960;14.836;2023-04-09T08:00:57;11.90;99.90
31725;DHT22;18306;40.960;14.836;2023-04-09T08:03:24;11.90;99.90
31725;DHT22;18306;40.960;14.836;2023-04-09T08:05:51;11.70;99.90
31725;DHT22;18306;40.960;14.836;2023-04-09T08:08:18;11.80;99.90
31725;DHT22;18306;40.960;14.836;2023-04-09T08:10:45;12.20;99.90
31725;DHT22;18306;40.960;14.836;2023-04-09T08:13:13;12.60;99.90
31725;DHT22;18306;40.960;14.836;2023-04-09T08:15:40;12.80;99.90
31725;DHT22;18306;40.960;14.836;2023-04-09T08:18:09;13.00;99.90
31725;DHT22;18306;40.960;14.836;2023-04-09T08:20:36;13.00;99.90
31725;DHT22;18306;40.960;14.836;2023-04-09T08:23:03;13.10;99.90
31725;DHT22;18306;40.960;14.836;2023-04-09T08:25:30;12.90;99.90
31725;DHT22;18306;40.960;14.836;2023-04-09T08:27:58;12.90;99.90
31725;DHT22;18306;40.960;14.836;2023-04-09T08:30:26;12.90;99.90
31725;DHT22;18306;40.960;14.836;2023-04-09T08:32:53;12.80;99.90
31725;DHT22;18306;40.960;14.836;2023-04-09T08:35:20;12.80;99.90
31725;DHT22;18306;40.960;14.836;2023-04-09T08:37:48;12.80;99.90
31725;DHT22;18306;40.960;14.836;2023-04-09T08:40:15;12.80;99.90
31725;DHT22;18306;40.960;14.836;2023-04-09T08:42:46;12.90;99.90
31725;DHT22;18306;40.960;14.836;2023-04-09T08:45:21;13.00;99.90
31725;DHT22;18306;40.960;14.836;2023-04-09T08:47:49;13.00;99.90
31725;DHT22;18306;40.960;14.836;2023-04-09T08:50:18;13.00;99.90
31725;DHT22;18306;40.960;14.836;2023-04-09T08:52:46;13.10;99.90
31725;DHT22;18306;40.960;14.836;2023-04-09T08:55:14;13.10;99.90
31725;DHT22;18306;40.960;14.836;2023-04-09T08:57:42;13.00;99.90
31725;DHT22;18306;40.960;14.836;2023-04-09T09:00:09;12.90;99.90
31725;DHT22;18306;40.960;14.836;2023-04-09T09:02:37;12.80;99.90
31725;DHT22;18306;40.960;14.836;2023-04-09T09:05:05;12.80;99.90
31725;DHT22;18306;40.960;14.836;2023-04-09T09:07:32;13.00;99.90
31725;DHT22;18306;40.960;14.836;2023-04-09T09:10:00;13.00;99.90
31725;DHT22;18306;40.960;14.836;2023-04-09T09:12:41;13.00;99.90
31725;DHT22;18306;40.960;14.836;2023-04-09T09:15:26;13.10;99.90
31725;DHT22;18306;40.960;14.836;2023-04-09T09:17:55;13.20;99.90
31725;DHT22;18306;40.960;14.836;2023-04-09T09:20:23;13.10;99.90
31725;DHT22;18306;40.960;14.836;2023-04-09T09:22:52;13.10;99.90
31725;DHT22;18306;40.960;14.836;2023-04-09T09:25:21;13.20;99.90
31725;DHT22;18306;40.960;14.836;2023-04-09T09:27:52;13.30;99.90
31725;DHT22;18306;40.960;14.836;2023-04-09T09:30:24;13.40;99.90
31725;DHT22;18306;40.960;14.836;2023-04-09T09:35:50;13.50;99.90
31725;DHT22;18306;40.960;14.836;2023-04-09T09:38:22;13.50;99.90
31725;DHT22;18306;40.960;14.836;2023-04-09T09:40:50;13.30;99.90
31725;DHT22;18306;40.960;14.836;2023-04-09T09:43:18;13.20;99.90
31725;DHT22;18306;40.960;14.836;2023-04-09T09:45:46;13.30;99.90
31725;DHT22;18306;40.960;14.836;2023-04-09T09:48:14;13.30;99.90
31725;DHT22;18306;40.960;14.836;2023-04-09T09:50:43;13.50;99.90
31725;DHT22;18306;40.960;14.836;2023-04-09T09:53:16;13.50;99.90
31725;DHT22;18306;40.960;14.836;2023-04-09T09:55:52;13.50;99.90
31725;DHT22;18306;40.960;14.836;2023-04-09T10:01:12;13.80;99.90
31725;DHT22;18306;40.960;14.836;2023-04-09T10:03:42;14.00;99.90
31725;DHT22;18306;40.960;14.836;2023-04-09T10:06:10;14.10;99.90
31725;DHT22;18306;40.960;14.836;2023-04-09T10:08:41;14.20;99.90
31725;DHT22;18306;40.960;14.836;2023-04-09T10:11:08;14.20;99.90
31725;DHT22;18306;40.960;14.836;2023-04-09T10:13:42;14.20;99.90
31725;DHT22;18306;40.960;14.836;2023-04-09T10:16:12;14.30;99.90
31725;DHT22;18306;40.960;14.836;2023-04-09T10:18:41;14.20;99.90
31725;DHT22;18306;40.960;14.836;2023-04-09T10:24:22;13.90;99.90
31725;DHT22;18306;40.960;14.836;2023-04-09T10:26:56;13.90;99.90
31725;DHT22;18306;40.960;14.836;2023-04-09T10:29:27;14.20;99.90
31725;DHT22;18306;40.960;14.836;2023-04-09T10:35:34;14.20;99.90
31725;DHT22;18306;40.960;14.836;2023-04-09T10:38:02;14.30;99.90
31725;DHT22;18306;40.960;14.836;2023-04-09T10:40:29;14.40;99.90
31725;DHT22;18306;40.960;14.836;2023-04-09T10:42:58;14.40;99.90
31725;DHT22;18306;40.960;14.836;2023-04-09T10:45:39;14.30;99.90
31725;DHT22;18306;40.960;14.836;2023-04-09T10:48:15;14.30;99.90
31725;DHT22;18306;40.960;14.836;2023-04-09T10:51:02;14.30;99.90
31725;DHT22;18306;40.960;14.836;2023-04-09T10:53:32;14.40;99.90
31725;DHT22;18306;40.960;14.836;2023-04-09T10:56:16;14.40;99.90
31725;DHT22;18306;40.960;14.836;2023-04-09T10:58:48;14.40;99.90
31725;DHT22;18306;40.960;14.836;2023-04-09T11:01:24;14.60;99.90
31725;DHT22;18306;40.960;14.836;2023-04-09T11:04:16;14.70;99.90
31725;DHT22;18306;40.960;14.836;2023-04-09T11:06:52;14.70;99.90
31725;DHT22;18306;40.960;14.836;2023-04-09T11:09:20;14.90;99.90
31725;DHT22;18306;40.960;14.836;2023-04-09T11:11:53;14.80;99.90
31725;DHT22;18306;40.960;14.836;2023-04-09T11:14:20;14.60;99.90
31725;DHT22;18306;40.960;14.836;2023-04-09T11:16:47;14.40;99.90
31725;DHT22;18306;40.960;14.836;2023-04-09T11:19:14;14.00;99.90
31725;DHT22;18306;40.960;14.836;2023-04-09T11:21:41;13.80;99.90
31725;DHT22;18306;40.960;14.836;2023-04-09T11:24:12;13.70;99.90
31725;DHT22;18306;40.960;14.836;2023-04-09T11:26:39;13.50;99.90
31725;DHT22;18306;40.960;14.836;2023-04-09T11:29:06;13.30;99.90
31725;DHT22;18306;40.960;14.836;2023-04-09T11:31:35;13.30;99.90
31725;DHT22;18306;40.960;14.836;2023-04-09T11:34:02;13.60;99.90
31725;DHT22;18306;40.960;14.836;2023-04-09T11:36:29;13.90;99.90
31725;DHT22;18306;40.960;14.836;2023-04-09T11:38:57;14.30;99.90
31725;DHT22;18306;40.960;14.836;2023-04-09T11:41:35;14.40;99.90
31725;DHT22;18306;40.960;14.836;2023-04-09T11:44:03;14.20;99.90
31725;DHT22;18306;40.960;14.836;2023-04-09T11:46:38;14.00;99.90
31725;DHT22;18306;40.960;14.836;2023-04-09T11:49:05;14.00;99.90
31725;DHT22;18306;40.960;14.836;2023-04-09T11:51:32;14.00;99.90
31725;DHT22;18306;40.960;14.836;2023-04-09T11:54:02;14.00;99.90
31725;DHT22;18306;40.960;14.836;2023-04-09T11:56:29;14.00;99.90
31725;DHT22;18306;40.960;14.836;2023-04-09T11:59:00;14.20;99.90
31725;DHT22;18306;40.960;14.836;2023-04-09T12:01:31;14.40;99.90
31725;DHT22;18306;40.960;14.836;2023-04-09T12:03:59;14.40;99.90
31725;DHT22;18306;40.960;14.836;2023-04-09T12:06:26;14.30;99.90
31725;DHT22;18306;40.960;14.836;2023-04-09T12:08:56;14.30;99.90
31725;DHT22;18306;40.960;14.836;2023-04-09T12:11:27;14.40;99.90
31725;DHT22;18306;40.960;14.836;2023-04-09T12:13:59;14.50;99.90
31725;DHT22;18306;40.960;14.836;2023-04-09T12:16:33;14.50;99.90
31725;DHT22;18306;40.960;14.836;2023-04-09T12:19:03;14.20;99.90
31725;DHT22;18306;40.960;14.836;2023-04-09T12:22:04;14.30;99.90
31725;DHT22;18306;40.960;14.836;2023-04-09T12:24:32;14.40;99.90
31725;DHT22;18306;40.960;14.836;2023-04-09T12:27:01;14.30;99.90
31725;DHT22;18306;40.960;14.836;2023-04-09T12:29:28;14.30;99.90
31725;DHT22;18306;40.960;14.836;2023-04-09T12:31:56;14.20;99.90
31725;DHT22;18306;40.960;14.836;2023-04-09T12:34:23;14.20;99.90
31725;DHT22;18306;40.960;14.836;2023-04-09T12:36:50;14.50;99.90
31725;DHT22;18306;40.960;14.836;2023-04-09T12:39:17;14.50;99.90
31725;DHT22;18306;40.960;14.836;2023-04-09T12:41:46;14.70;99.90
31725;DHT22;18306;40.960;14.836;2023-04-09T12:44:13;14.90;99.90
31725;DHT22;18306;40.960;14.836;2023-04-09T12:46:40;14.60;99.90
31725;DHT22;18306;40.960;14.836;2023-04-09T12:49:07;14.40;99.90
31725;DHT22;18306;40.960;14.836;2023-04-09T12:51:34;14.50;99.90
31725;DHT22;18306;40.960;14.836;2023-04-09T12:54:01;14.70;99.90
31725;DHT22;18306;40.960;14.836;2023-04-09T12:56:29;14.30;99.90
31725;DHT22;18306;40.960;14.836;2023-04-09T12:58:56;14.50;99.90
31725;DHT22;18306;40.960;14.836;2023-04-09T13:01:23;14.80;99.90
31725;DHT22;18306;40.960;14.836;2023-04-09T13:03:50;15.00;99.90
31725;DHT22;18306;40.960;14.836;2023-04-09T13:06:18;15.20;99.90
31725;DHT22;18306;40.960;14.836;2023-04-09T13:08:45;15.20;99.90
31725;DHT22;18306;40.960;14.836;2023-04-09T13:11:12;15.30;99.90
31725;DHT22;18306;40.960;14.836;2023-04-09T13:13:39;15.20;99.90
31725;DHT22;18306;40.960;14.836;2023-04-09T13:16:06;15.20;99.90
31725;DHT22;18306;40.960;14.836;2023-04-09T13:18:33;15.20;99.90
31725;DHT22;18306;40.960;14.836;2023-04-09T13:21:00;15.30;99.90
31725;DHT22;18306;40.960;14.836;2023-04-09T13:23:27;15.20;99.90
31725;DHT22;18306;40.960;14.836;2023-04-09T13:25:54;15.30;99.90
31725;DHT22;18306;40.960;14.836;2023-04-09T13:28:21;15.50;99.90
31725;DHT22;18306;40.960;14.836;2023-04-09T13:30:48;15.50;99.90
31725;DHT22;18306;40.960;14.836;2023-04-09T13:33:15;15.40;99.90
31725;DHT22;18306;40.960;14.836;2023-04-09T13:35:42;15.50;99.90
31725;DHT22;18306;40.960;14.836;2023-04-09T13:38:09;15.60;99.40
31725;DHT22;18306;40.960;14.836;2023-04-09T13:40:36;15.40;99.40
31725;DHT22;18306;40.960;14.836;2023-04-09T13:43:03;15.30;98.80
31725;DHT22;18306;40.960;14.836;2023-04-09T13:45:30;15.00;99.50
31725;DHT22;18306;40.960;14.836;2023-04-09T13:47:57;14.90;99.70
31725;DHT22;18306;40.960;14.836;2023-04-09T13:50:24;15.00;99.70
31725;DHT22;18306;40.960;14.836;2023-04-09T13:52:51;15.00;99.90
31725;DHT22;18306;40.960;14.836;2023-04-09T13:55:18;15.10;99.90
31725;DHT22;18306;40.960;14.836;2023-04-09T13:57:46;15.20;99.80
31725;DHT22;18306;40.960;14.836;2023-04-09T14:00:13;15.20;99.90
31725;DHT22;18306;40.960;14.836;2023-04-09T14:02:40;15.30;99.90
31725;DHT22;18306;40.960;14.836;2023-04-09T14:05:07;15.50;99.50
31725;DHT22;18306;40.960;14.836;2023-04-09T14:07:34;15.50;98.80
31725;DHT22;18306;40.960;14.836;2023-04-09T14:10:01;15.60;98.30
31725;DHT22;18306;40.960;14.836;2023-04-09T14:12:29;15.60;97.90
31725;DHT22;18306;40.960;14.836;2023-04-09T14:14:56;15.80;98.60
31725;DHT22;18306;40.960;14.836;2023-04-09T14:17:23;15.90;97.40
31725;DHT22;18306;40.960;14.836;2023-04-09T14:19:50;15.90;97.90
31725;DHT22;18306;40.960;14.836;2023-04-09T14:22:17;16.00;98.00
31725;DHT22;18306;40.960;14.836;2023-04-09T14:24:44;16.10;98.00
31725;DHT22;18306;40.960;14.836;2023-04-09T14:27:11;16.10;98.40
31725;DHT22;18306;40.960;14.836;2023-04-09T14:29:38;16.00;99.20
31725;DHT22;18306;40.960;14.836;2023-04-09T14:32:05;15.80;99.80
31725;DHT22;18306;40.960;14.836;2023-04-09T14:34:33;15.70;99.90
31725;DHT22;18306;40.960;14.836;2023-04-09T14:37:00;15.60;99.40
31725;DHT22;18306;40.960;14.836;2023-04-09T14:39:27;15.20;99.90
31725;DHT22;18306;40.960;14.836;2023-04-09T14:41:54;15.00;99.90
31725;DHT22;18306;40.960;14.836;2023-04-09T14:44:22;14.90;99.90
31725;DHT22;18306;40.960;14.836;2023-04-09T14:46:51;14.90;99.90
31725;DHT22;18306;40.960;14.836;2023-04-09T14:49:20;15.00;99.90
31725;DHT22;18306;40.960;14.836;2023-04-09T14:51:47;15.20;99.90
31725;DHT22;18306;40.960;14.836;2023-04-09T14:54:14;15.30;99.90
31725;DHT22;18306;40.960;14.836;2023-04-09T14:56:42;15.30;99.90
31725;DHT22;18306;40.960;14.836;2023-04-09T14:59:09;15.30;99.80
31725;DHT22;18306;40.960;14.836;2023-04-09T15:01:36;15.40;99.90
31725;DHT22;18306;40.960;14.836;2023-04-09T15:04:03;15.40;99.60
31725;DHT22;18306;40.960;14.836;2023-04-09T15:06:30;15.30;99.60
31725;DHT22;18306;40.960;14.836;2023-04-09T15:08:57;15.40;99.60
31725;DHT22;18306;40.960;14.836;2023-04-09T15:11:24;15.40;99.50
31725;DHT22;18306;40.960;14.836;2023-04-09T15:13:52;15.50;98.70
31725;DHT22;18306;40.960;14.836;2023-04-09T15:16:26;15.40;98.50
31725;DHT22;18306;40.960;14.836;2023-04-09T15:18:54;15.50;97.90
31725;DHT22;18306;40.960;14.836;2023-04-09T15:21:24;15.40;97.40
31725;DHT22;18306;40.960;14.836;2023-04-09T15:23:53;15.30;98.50
31725;DHT22;18306;40.960;14.836;2023-04-09T15:26:20;15.10;98.80
31725;DHT22;18306;40.960;14.836;2023-04-09T15:28:47;15.10;99.00
31725;DHT22;18306;40.960;14.836;2023-04-09T15:31:14;15.30;98.40
31725;DHT22;18306;40.960;14.836;2023-04-09T15:33:44;15.30;97.90
31725;DHT22;18306;40.960;14.836;2023-04-09T15:36:12;15.10;97.30
31725;DHT22;18306;40.960;14.836;2023-04-09T15:38:42;15.10;97.10
31725;DHT22;18306;40.960;14.836;2023-04-09T15:41:09;15.20;96.90
31725;DHT22;18306;40.960;14.836;2023-04-09T15:43:36;15.30;96.40
31725;DHT22;18306;40.960;14.836;2023-04-09T15:46:10;15.40;96.20
31725;DHT22;18306;40.960;14.836;2023-04-09T15:48:37;15.30;96.10
31725;DHT22;18306;40.960;14.836;2023-04-09T15:51:04;15.30;95.90
31725;DHT22;18306;40.960;14.836;2023-04-09T15:53:31;15.30;96.20